Time;durP1;ratioP1;P1;durP2;ratioP2;P2;SDS_P1;SDS_P2;PMS_P1;PMS_P2;Temp;Humidity;BMP_temperature;BMP_pressure;BME280_temperature;BME280_humidity;BME280_pressure;Samples;Min_cycle;Max_cycle;Signal;HPM_P1;HPM_P2
2022/04/13 00:00:32;;;;;;;;;;;21.90;34.50;;;;;;5072828;28;19942;-60
2022/04/13 00:02:58;;;;;;;;;;;21.90;34.70;;;;;;5083275;28;20283;-60
2022/04/13 00:05:23;;;;;;;;;;;21.90;34.70;;;;;;5080591;28;19916;-60
2022/04/13 00:07:49;;;;;;;;;;;21.80;34.70;;;;;;5076398;28;19912;-60
2022/04/13 00:10:14;;;;;;;;;;;21.80;34.70;;;;;;5086838;28;20348;-60
2022/04/13 00:12:40;;;;;;;;;;;21.80;34.80;;;;;;5081893;28;20363;-60
2022/04/13 00:15:06;;;;;;;;;;;21.80;34.90;;;;;;5077306;28;19925;-60
2022/04/13 00:17:31;;;;;;;;;;;21.90;34.80;;;;;;5079991;28;19920;-60
2022/04/13 00:19:57;;;;;;;;;;;21.80;34.70;;;;;;5080010;28;19916;-60
2022/04/13 00:22:22;;;;;;;;;;;21.80;34.70;;;;;;5079594;28;19935;-60
2022/04/13 00:24:48;;;;;;;;;;;21.80;34.80;;;;;;5079918;28;19912;-60
2022/04/13 00:27:13;;;;;;;;;;;21.80;34.90;;;;;;5070893;28;19923;-60
2022/04/13 00:29:39;;;;;;;;;;;21.80;34.70;;;;;;5072588;28;19962;-60
2022/04/13 00:32:04;;;;;;;;;;;21.80;34.80;;;;;;5069025;28;20380;-60
2022/04/13 00:34:30;;;;;;;;;;;21.80;34.60;;;;;;5070051;28;19924;-61
2022/04/13 00:36:57;;;;;;;;;;;21.80;34.80;;;;;;5079972;28;19974;-60
2022/04/13 00:39:23;;;;;;;;;;;21.80;34.70;;;;;;5083242;28;19912;-60
2022/04/13 00:41:54;;;;;;;;;;;21.70;34.60;;;;;;5079508;28;19957;-60
2022/04/13 00:44:20;;;;;;;;;;;21.80;34.50;;;;;;5066572;28;20466;-60
2022/04/13 00:46:45;;;;;;;;;;;21.80;34.50;;;;;;5074152;28;20003;-60
2022/04/13 00:49:11;;;;;;;;;;;21.80;34.50;;;;;;5071687;28;19912;-59
2022/04/13 00:51:36;;;;;;;;;;;21.80;34.50;;;;;;5084018;28;19919;-60
2022/04/13 00:54:04;;;;;;;;;;;21.80;34.50;;;;;;5090088;28;19923;-60
2022/04/13 00:56:29;;;;;;;;;;;21.80;34.50;;;;;;5075800;28;20287;-59
2022/04/13 00:58:56;;;;;;;;;;;21.70;34.20;;;;;;5080971;28;19916;-60
2022/04/13 01:01:22;;;;;;;;;;;21.80;34.20;;;;;;5074933;28;19978;-60
2022/04/13 01:03:52;;;;;;;;;;;21.70;34.30;;;;;;5074621;28;20287;-60
2022/04/13 01:06:17;;;;;;;;;;;21.70;34.10;;;;;;5083917;28;19934;-61
2022/04/13 01:08:43;;;;;;;;;;;21.70;34.10;;;;;;5073605;28;19916;-60
2022/04/13 01:11:08;;;;;;;;;;;21.80;34.10;;;;;;5090498;28;19958;-61
2022/04/13 01:13:34;;;;;;;;;;;21.80;34.10;;;;;;5086955;28;19916;-60
2022/04/13 01:15:59;;;;;;;;;;;21.80;34.20;;;;;;5070111;28;20005;-60
2022/04/13 01:18:25;;;;;;;;;;;21.80;34.30;;;;;;5067988;28;19962;-60
2022/04/13 01:20:52;;;;;;;;;;;21.70;34.00;;;;;;5069856;28;19912;-60
2022/04/13 01:23:19;;;;;;;;;;;21.70;34.00;;;;;;5084743;28;19914;-61
2022/04/13 01:25:48;;;;;;;;;;;21.70;34.10;;;;;;5079946;28;19969;-61
2022/04/13 01:28:13;;;;;;;;;;;21.70;34.00;;;;;;5075332;28;19985;-60
2022/04/13 01:30:39;;;;;;;;;;;21.60;34.00;;;;;;5074383;28;19963;-61
2022/04/13 01:33:04;;;;;;;;;;;21.70;34.20;;;;;;5077798;28;19912;-60
2022/04/13 01:35:30;;;;;;;;;;;21.70;34.10;;;;;;5090919;28;20375;-60
2022/04/13 01:37:55;;;;;;;;;;;21.70;33.80;;;;;;5074775;28;20260;-60
2022/04/13 01:40:21;;;;;;;;;;;21.70;33.80;;;;;;5076939;28;20011;-60
2022/04/13 01:42:48;;;;;;;;;;;21.70;33.60;;;;;;5072929;28;19935;-61
2022/04/13 01:45:19;;;;;;;;;;;21.70;33.50;;;;;;5073623;28;20327;-60
2022/04/13 01:47:51;;;;;;;;;;;21.70;33.60;;;;;;5076980;28;19923;-60
2022/04/13 01:50:17;;;;;;;;;;;21.70;33.50;;;;;;5080698;28;19957;-60
2022/04/13 01:52:43;;;;;;;;;;;21.70;33.30;;;;;;5083242;28;19963;-60
2022/04/13 01:55:08;;;;;;;;;;;21.80;33.20;;;;;;5075809;28;19916;-60
2022/04/13 01:57:34;;;;;;;;;;;21.80;33.20;;;;;;5079916;28;19944;-61
2022/04/13 01:59:59;;;;;;;;;;;21.90;33.20;;;;;;5080948;28;19912;-60
2022/04/13 02:02:25;;;;;;;;;;;21.90;33.20;;;;;;5080226;28;19912;-60
2022/04/13 02:04:50;;;;;;;;;;;22.00;33.20;;;;;;5076344;28;19913;-60
2022/04/13 02:07:16;;;;;;;;;;;21.90;33.10;;;;;;5077326;28;20388;-60
2022/04/13 02:09:41;;;;;;;;;;;21.90;33.00;;;;;;5074237;28;19919;-60
2022/04/13 02:12:07;;;;;;;;;;;22.00;33.00;;;;;;5076684;28;19926;-60
2022/04/13 02:14:32;;;;;;;;;;;21.90;32.80;;;;;;5080969;28;20013;-60
2022/04/13 02:16:58;;;;;;;;;;;21.90;32.90;;;;;;5087997;28;20364;-60
2022/04/13 02:19:23;;;;;;;;;;;21.90;32.80;;;;;;5085991;28;20462;-60
2022/04/13 02:21:49;;;;;;;;;;;21.90;32.70;;;;;;5078120;28;19922;-61
2022/04/13 02:24:14;;;;;;;;;;;21.90;32.80;;;;;;5089351;28;19908;-60
2022/04/13 02:26:40;;;;;;;;;;;21.90;32.60;;;;;;5068456;28;19921;-60
2022/04/13 02:29:05;;;;;;;;;;;21.90;32.60;;;;;;5073382;28;19917;-60
2022/04/13 02:31:31;;;;;;;;;;;21.90;32.60;;;;;;5083042;28;19912;-61
2022/04/13 02:33:56;;;;;;;;;;;21.90;32.50;;;;;;5073506;28;19959;-60
2022/04/13 02:36:22;;;;;;;;;;;21.90;32.50;;;;;;5089604;28;19913;-60
2022/04/13 02:38:47;;;;;;;;;;;21.80;32.50;;;;;;5075851;28;19913;-60
2022/04/13 02:41:13;;;;;;;;;;;21.80;32.60;;;;;;5079426;28;19912;-60
2022/04/13 02:43:39;;;;;;;;;;;21.90;32.60;;;;;;5076787;28;19921;-61
2022/04/13 02:46:04;;;;;;;;;;;21.90;32.70;;;;;;5073907;28;19921;-60
2022/04/13 02:48:30;;;;;;;;;;;21.80;32.50;;;;;;5071979;28;19958;-60
2022/04/13 02:50:56;;;;;;;;;;;21.80;32.50;;;;;;5078503;28;20007;-61
2022/04/13 02:53:23;;;;;;;;;;;21.80;32.60;;;;;;5082861;28;19966;-60
2022/04/13 02:55:49;;;;;;;;;;;21.80;32.50;;;;;;5086126;28;19947;-60
2022/04/13 02:58:14;;;;;;;;;;;21.70;32.50;;;;;;5073984;28;19970;-60
2022/04/13 03:00:40;;;;;;;;;;;21.80;32.60;;;;;;5081488;28;19913;-60
2022/04/13 03:03:05;;;;;;;;;;;21.70;32.60;;;;;;5082247;28;20041;-60
2022/04/13 03:05:31;;;;;;;;;;;21.70;32.70;;;;;;5068923;28;19912;-60
2022/04/13 03:07:56;;;;;;;;;;;21.70;32.70;;;;;;5080322;28;19908;-60
2022/04/13 03:10:22;;;;;;;;;;;21.70;32.70;;;;;;5083366;28;19920;-60
2022/04/13 03:12:47;;;;;;;;;;;21.60;32.70;;;;;;5075326;28;19926;-60
2022/04/13 03:15:14;;;;;;;;;;;21.60;32.60;;;;;;5087157;28;19915;-61
2022/04/13 03:17:39;;;;;;;;;;;21.60;32.70;;;;;;5086388;28;19939;-60
2022/04/13 03:20:05;;;;;;;;;;;21.60;32.80;;;;;;5078649;28;20408;-60
2022/04/13 03:22:31;;;;;;;;;;;21.60;32.80;;;;;;5073106;28;19917;-60
2022/04/13 03:24:58;;;;;;;;;;;21.50;32.60;;;;;;5084533;28;20364;-60
2022/04/13 03:27:24;;;;;;;;;;;21.50;32.60;;;;;;5079323;28;19920;-60
2022/04/13 03:29:49;;;;;;;;;;;21.60;32.70;;;;;;5084088;28;19973;-60
2022/04/13 03:32:15;;;;;;;;;;;21.60;32.70;;;;;;5082382;28;20335;-60
2022/04/13 03:34:40;;;;;;;;;;;21.50;32.70;;;;;;5080552;28;19917;-60
2022/04/13 03:37:06;;;;;;;;;;;21.50;32.70;;;;;;5084454;28;19991;-60
2022/04/13 03:39:31;;;;;;;;;;;21.50;32.70;;;;;;5082449;28;20045;-60
2022/04/13 03:41:57;;;;;;;;;;;21.50;32.70;;;;;;5085036;28;20310;-60
2022/04/13 03:44:22;;;;;;;;;;;21.50;32.80;;;;;;5078177;28;19958;-60
2022/04/13 03:46:48;;;;;;;;;;;21.50;32.80;;;;;;5068451;28;19962;-60
2022/04/13 03:49:13;;;;;;;;;;;21.50;33.40;;;;;;5075856;28;19913;-60
2022/04/13 03:51:39;;;;;;;;;;;21.50;32.80;;;;;;5079079;28;20323;-60
2022/04/13 03:54:04;;;;;;;;;;;21.40;32.60;;;;;;5080972;28;19927;-60
2022/04/13 03:56:30;;;;;;;;;;;21.50;32.80;;;;;;5071106;28;19947;-60
2022/04/13 03:58:56;;;;;;;;;;;21.40;32.60;;;;;;5080996;28;20318;-60
2022/04/13 04:01:22;;;;;;;;;;;21.40;32.70;;;;;;5076849;28;19995;-60
2022/04/13 04:03:47;;;;;;;;;;;21.30;32.70;;;;;;5074050;28;19919;-60
2022/04/13 04:06:12;;;;;;;;;;;21.30;32.80;;;;;;5083686;28;20007;-60
2022/04/13 04:08:38;;;;;;;;;;;21.20;32.80;;;;;;5074815;28;19958;-60
2022/04/13 04:11:03;;;;;;;;;;;21.30;32.80;;;;;;5077919;28;19924;-60
2022/04/13 04:13:29;;;;;;;;;;;21.20;32.80;;;;;;5086531;28;20439;-60
2022/04/13 04:15:54;;;;;;;;;;;21.30;32.90;;;;;;5071091;28;19916;-60
2022/04/13 04:18:20;;;;;;;;;;;21.30;32.80;;;;;;5072065;28;19966;-60
2022/04/13 04:20:45;;;;;;;;;;;21.30;32.70;;;;;;5072021;28;19920;-60
2022/04/13 04:23:11;;;;;;;;;;;21.30;32.70;;;;;;5078374;28;19916;-60
2022/04/13 04:25:36;;;;;;;;;;;21.30;32.70;;;;;;5070523;28;19912;-60
2022/04/13 04:28:03;;;;;;;;;;;21.30;32.60;;;;;;5065898;28;19912;-60
2022/04/13 04:30:31;;;;;;;;;;;21.40;32.60;;;;;;5065684;28;19912;-60
2022/04/13 04:32:57;;;;;;;;;;;21.50;32.40;;;;;;5079026;28;19935;-60
2022/04/13 04:35:22;;;;;;;;;;;21.50;32.40;;;;;;5077088;28;19965;-60
2022/04/13 04:37:48;;;;;;;;;;;21.50;32.30;;;;;;5077695;28;20006;-61
2022/04/13 04:40:14;;;;;;;;;;;21.50;32.20;;;;;;5074838;28;19939;-60
2022/04/13 04:42:48;;;;;;;;;;;21.50;32.20;;;;;;5082406;28;19916;-60
2022/04/13 04:45:16;;;;;;;;;;;21.50;32.30;;;;;;5072556;28;19981;-60
2022/04/13 04:47:42;;;;;;;;;;;21.50;32.20;;;;;;5069408;28;19912;-60
2022/04/13 04:50:08;;;;;;;;;;;21.50;32.20;;;;;;5070656;28;19913;-59
2022/04/13 04:52:33;;;;;;;;;;;21.50;32.20;;;;;;5082589;28;19953;-59
2022/04/13 04:54:59;;;;;;;;;;;21.50;32.40;;;;;;5074232;28;19945;-60
2022/04/13 04:57:24;;;;;;;;;;;21.40;32.30;;;;;;5077928;28;19912;-60
2022/04/13 04:59:50;;;;;;;;;;;21.40;32.30;;;;;;5088080;28;20006;-60
2022/04/13 05:02:15;;;;;;;;;;;21.40;32.40;;;;;;5079347;28;19919;-60
2022/04/13 05:04:40;;;;;;;;;;;21.40;32.50;;;;;;5075499;28;19912;-60
2022/04/13 05:07:07;;;;;;;;;;;21.40;32.50;;;;;;5088887;28;19951;-60
2022/04/13 05:09:32;;;;;;;;;;;21.30;32.40;;;;;;5080240;28;20011;-59
2022/04/13 05:11:58;;;;;;;;;;;21.30;32.40;;;;;;5090154;28;20019;-60
2022/04/13 05:14:25;;;;;;;;;;;21.30;33.10;;;;;;5071860;28;20015;-60
2022/04/13 05:16:50;;;;;;;;;;;21.30;32.50;;;;;;5079629;28;19966;-60
2022/04/13 05:19:16;;;;;;;;;;;21.30;32.50;;;;;;5082532;28;19943;-60
2022/04/13 05:21:41;;;;;;;;;;;21.30;32.40;;;;;;5088283;28;19912;-60
2022/04/13 05:24:07;;;;;;;;;;;21.30;32.40;;;;;;5084228;28;19912;-61
2022/04/13 05:26:32;;;;;;;;;;;21.40;32.50;;;;;;5080044;28;19920;-60
2022/04/13 05:28:58;;;;;;;;;;;21.40;32.50;;;;;;5075089;28;19939;-60
2022/04/13 05:31:24;;;;;;;;;;;21.30;32.40;;;;;;5074140;28;20040;-60
2022/04/13 05:33:49;;;;;;;;;;;21.30;32.50;;;;;;5084542;28;19916;-60
2022/04/13 05:36:15;;;;;;;;;;;21.30;32.50;;;;;;5079533;28;20019;-60
2022/04/13 05:38:40;;;;;;;;;;;21.30;32.50;;;;;;5074607;28;19959;-60
2022/04/13 05:41:05;;;;;;;;;;;21.30;32.60;;;;;;5075154;28;19916;-60
2022/04/13 05:43:33;;;;;;;;;;;21.30;32.60;;;;;;5074718;28;19966;-60
2022/04/13 05:45:58;;;;;;;;;;;21.30;32.70;;;;;;5078933;28;19941;-60
2022/04/13 05:48:24;;;;;;;;;;;21.30;32.70;;;;;;5084100;28;19992;-60
2022/04/13 05:50:50;;;;;;;;;;;21.30;32.80;;;;;;5075465;28;19965;-61
2022/04/13 05:53:16;;;;;;;;;;;21.20;32.80;;;;;;5081509;28;19915;-60
2022/04/13 05:55:41;;;;;;;;;;;21.20;32.80;;;;;;5073183;28;19916;-60
2022/04/13 05:58:07;;;;;;;;;;;21.20;32.90;;;;;;5076051;28;20356;-60
2022/04/13 06:00:32;;;;;;;;;;;21.10;33.00;;;;;;5083810;28;19908;-61
2022/04/13 06:02:58;;;;;;;;;;;21.10;33.10;;;;;;5082552;28;19908;-60
2022/04/13 06:05:24;;;;;;;;;;;21.00;33.20;;;;;;5078948;28;19916;-60
2022/04/13 06:07:50;;;;;;;;;;;21.00;33.20;;;;;;5068713;28;19920;-60
2022/04/13 06:10:17;;;;;;;;;;;21.00;33.30;;;;;;5082309;28;20401;-59
2022/04/13 06:12:43;;;;;;;;;;;21.00;33.30;;;;;;5076763;28;19919;-60
2022/04/13 06:15:09;;;;;;;;;;;20.90;33.20;;;;;;5073302;28;19924;-60
2022/04/13 06:17:35;;;;;;;;;;;21.00;33.30;;;;;;5074076;28;19923;-60
2022/04/13 06:20:00;;;;;;;;;;;20.90;33.30;;;;;;5082233;28;19916;-60
2022/04/13 06:22:26;;;;;;;;;;;20.90;33.40;;;;;;5075274;28;20356;-60
2022/04/13 06:24:51;;;;;;;;;;;20.90;33.50;;;;;;5074029;28;19919;-60
2022/04/13 06:27:18;;;;;;;;;;;20.90;33.50;;;;;;5073305;28;20233;-59
2022/04/13 06:29:43;;;;;;;;;;;20.80;33.50;;;;;;5057455;28;19912;-61
2022/04/13 06:32:09;;;;;;;;;;;20.80;33.50;;;;;;5077034;28;19916;-59
2022/04/13 06:34:34;;;;;;;;;;;20.80;33.50;;;;;;5085605;28;19924;-62
2022/04/13 06:36:59;;;;;;;;;;;21.10;33.50;;;;;;5079372;28;19959;-62
2022/04/13 06:39:25;;;;;;;;;;;21.50;33.10;;;;;;5076323;28;19912;-61
2022/04/13 06:41:50;;;;;;;;;;;22.10;32.30;;;;;;5072028;28;19920;-62
2022/04/13 06:44:16;;;;;;;;;;;22.70;31.60;;;;;;5066592;28;19958;-62
2022/04/13 06:46:41;;;;;;;;;;;23.30;30.70;;;;;;5071881;28;19927;-62
2022/04/13 06:49:07;;;;;;;;;;;23.80;30.20;;;;;;5081466;28;19924;-62
2022/04/13 06:51:33;;;;;;;;;;;24.10;30.00;;;;;;5083797;28;19942;-62
2022/04/13 06:53:58;;;;;;;;;;;24.30;29.80;;;;;;5074795;28;19935;-62
2022/04/13 06:56:24;;;;;;;;;;;24.50;29.70;;;;;;5074631;28;19921;-62
2022/04/13 06:58:49;;;;;;;;;;;24.70;29.70;;;;;;5078800;28;19916;-60
2022/04/13 07:01:15;;;;;;;;;;;24.90;29.70;;;;;;5071677;28;19912;-60
2022/04/13 07:03:40;;;;;;;;;;;25.00;29.60;;;;;;5077959;28;19939;-62
2022/04/13 07:06:05;;;;;;;;;;;25.00;29.60;;;;;;5080905;28;19924;-61
2022/04/13 07:08:31;;;;;;;;;;;24.90;29.70;;;;;;5080198;28;19912;-62
2022/04/13 07:10:57;;;;;;;;;;;24.90;29.90;;;;;;5079600;28;19973;-63
2022/04/13 07:13:23;;;;;;;;;;;24.90;29.90;;;;;;5075575;28;20379;-62
2022/04/13 07:15:50;;;;;;;;;;;24.80;30.00;;;;;;5080880;28;19916;-62
2022/04/13 07:18:15;;;;;;;;;;;24.80;30.00;;;;;;5076702;28;19966;-63
2022/04/13 07:20:41;;;;;;;;;;;24.80;30.10;;;;;;5081329;28;20334;-59
2022/04/13 07:23:06;;;;;;;;;;;24.70;30.10;;;;;;5087013;28;19990;-60
2022/04/13 07:25:32;;;;;;;;;;;24.70;30.20;;;;;;5086853;28;20353;-62
2022/04/13 07:27:57;;;;;;;;;;;24.70;30.30;;;;;;5074447;28;19963;-60
2022/04/13 07:30:23;;;;;;;;;;;24.70;30.40;;;;;;5072407;28;19912;-61
2022/04/13 07:32:51;;;;;;;;;;;24.60;30.50;;;;;;5084258;28;19916;-61
2022/04/13 07:35:16;;;;;;;;;;;24.50;30.60;;;;;;5071268;28;20327;-60
2022/04/13 07:37:43;;;;;;;;;;;24.50;30.80;;;;;;5080174;28;19923;-61
2022/04/13 07:40:12;;;;;;;;;;;24.50;30.80;;;;;;5079049;28;20015;-62
2022/04/13 07:42:37;;;;;;;;;;;24.50;30.90;;;;;;5074391;28;20003;-61
2022/04/13 07:45:03;;;;;;;;;;;24.50;30.90;;;;;;5078164;28;19999;-62
2022/04/13 07:47:29;;;;;;;;;;;24.50;31.10;;;;;;5081459;28;19958;-62
2022/04/13 07:49:54;;;;;;;;;;;24.50;31.20;;;;;;5080012;28;19921;-62
2022/04/13 07:52:20;;;;;;;;;;;24.50;31.10;;;;;;5080754;28;20069;-61
2022/04/13 07:54:45;;;;;;;;;;;24.60;31.20;;;;;;5084246;28;19912;-62
2022/04/13 07:57:11;;;;;;;;;;;24.60;31.20;;;;;;5081650;28;19919;-62
2022/04/13 07:59:36;;;;;;;;;;;24.60;31.20;;;;;;5072954;28;19916;-62
2022/04/13 08:02:02;;;;;;;;;;;24.50;31.30;;;;;;5076239;28;19912;-63
2022/04/13 08:04:28;;;;;;;;;;;24.60;31.30;;;;;;5079831;28;19955;-61
2022/04/13 08:06:53;;;;;;;;;;;24.60;31.30;;;;;;5078749;28;19966;-60
2022/04/13 08:09:19;;;;;;;;;;;24.70;31.30;;;;;;5074106;28;19917;-62
2022/04/13 08:11:45;;;;;;;;;;;24.70;31.20;;;;;;5075333;28;19942;-61
2022/04/13 08:14:11;;;;;;;;;;;24.80;31.30;;;;;;5081760;28;19916;-62
2022/04/13 08:16:36;;;;;;;;;;;24.80;31.20;;;;;;5079775;28;19921;-60
2022/04/13 08:19:02;;;;;;;;;;;24.90;31.20;;;;;;5074301;28;19912;-61
2022/04/13 08:21:27;;;;;;;;;;;24.90;31.20;;;;;;5077201;28;19916;-62
2022/04/13 08:23:53;;;;;;;;;;;24.80;31.20;;;;;;5091393;28;20002;-62
2022/04/13 08:26:18;;;;;;;;;;;24.80;31.30;;;;;;5083120;28;19913;-62
2022/04/13 08:28:44;;;;;;;;;;;24.80;31.40;;;;;;5086617;28;19916;-62
2022/04/13 08:31:09;;;;;;;;;;;24.80;31.50;;;;;;5090109;28;19912;-61
2022/04/13 08:33:35;;;;;;;;;;;24.80;31.50;;;;;;5091141;28;19988;-62
2022/04/13 08:36:01;;;;;;;;;;;24.70;31.60;;;;;;5076822;28;19919;-62
2022/04/13 08:38:26;;;;;;;;;;;24.70;31.70;;;;;;5077408;28;20444;-62
2022/04/13 08:41:01;;;;;;;;;;;24.70;31.70;;;;;;5088997;28;20292;-62
2022/04/13 08:43:41;;;;;;;;;;;24.60;31.70;;;;;;5080807;28;20364;-62
2022/04/13 08:46:07;;;;;;;;;;;24.50;31.90;;;;;;5083475;28;20293;-62
2022/04/13 08:48:33;;;;;;;;;;;24.40;32.00;;;;;;5089382;28;19908;-62
2022/04/13 08:50:59;;;;;;;;;;;24.30;32.20;;;;;;5090804;28;20383;-62
2022/04/13 08:53:27;;;;;;;;;;;24.20;32.30;;;;;;5090649;28;20295;-62
2022/04/13 08:55:53;;;;;;;;;;;24.20;32.40;;;;;;5090755;28;19916;-62
2022/04/13 08:58:34;;;;;;;;;;;24.20;32.50;;;;;;5075155;28;19966;-62
2022/04/13 09:01:02;;;;;;;;;;;24.20;32.50;;;;;;5071217;28;19912;-62
2022/04/13 09:03:34;;;;;;;;;;;24.20;32.50;;;;;;5084603;28;19909;-62
2022/04/13 09:05:59;;;;;;;;;;;24.20;32.60;;;;;;5085311;28;19943;-62
2022/04/13 09:08:30;;;;;;;;;;;24.20;32.60;;;;;;5070910;28;19981;-62
2022/04/13 09:10:56;;;;;;;;;;;24.20;32.60;;;;;;5084020;28;20451;-62
2022/04/13 09:13:21;;;;;;;;;;;24.20;32.60;;;;;;5083692;28;19908;-62
2022/04/13 09:15:47;;;;;;;;;;;24.20;32.60;;;;;;5083245;28;19919;-62
2022/04/13 09:18:12;;;;;;;;;;;24.30;32.70;;;;;;5081822;28;19916;-62
2022/04/13 09:20:38;;;;;;;;;;;24.20;32.60;;;;;;5084113;28;19912;-62
2022/04/13 09:23:03;;;;;;;;;;;24.20;32.90;;;;;;5090494;28;19961;-62
2022/04/13 09:25:29;;;;;;;;;;;24.10;32.90;;;;;;5078097;28;19923;-62
2022/04/13 09:27:55;;;;;;;;;;;24.00;33.00;;;;;;5090539;28;19920;-62
2022/04/13 09:30:20;;;;;;;;;;;24.00;33.20;;;;;;5089460;28;19908;-62
2022/04/13 09:32:46;;;;;;;;;;;23.90;33.30;;;;;;5086058;28;20290;-62
2022/04/13 09:35:11;;;;;;;;;;;23.80;33.40;;;;;;5077372;28;19931;-62
2022/04/13 09:37:37;;;;;;;;;;;23.70;33.50;;;;;;5067930;28;20031;-62
2022/04/13 09:40:02;;;;;;;;;;;23.70;33.60;;;;;;5074640;28;20010;-62
2022/04/13 09:42:28;;;;;;;;;;;23.70;33.60;;;;;;5080560;28;19908;-62
2022/04/13 09:44:56;;;;;;;;;;;23.70;33.70;;;;;;5087778;28;19974;-62
2022/04/13 09:47:23;;;;;;;;;;;23.70;33.70;;;;;;5090631;28;19944;-62
2022/04/13 09:49:53;;;;;;;;;;;23.70;33.80;;;;;;5090084;28;19987;-62
2022/04/13 09:52:25;;;;;;;;;;;23.70;33.70;;;;;;5081451;28;19916;-62
2022/04/13 09:54:50;;;;;;;;;;;23.70;33.80;;;;;;5080801;28;19920;-62
2022/04/13 09:57:19;;;;;;;;;;;23.70;33.90;;;;;;5085412;28;19915;-62
2022/04/13 09:59:45;;;;;;;;;;;23.70;33.80;;;;;;5080909;28;19964;-61
2022/04/13 10:02:10;;;;;;;;;;;23.80;33.80;;;;;;5087409;28;20280;-62
2022/04/13 10:04:36;;;;;;;;;;;23.80;33.80;;;;;;5093386;28;20019;-62
2022/04/13 10:07:15;;;;;;;;;;;23.80;33.80;;;;;;5086194;28;19932;-62
2022/04/13 10:09:41;;;;;;;;;;;23.80;33.90;;;;;;5081654;28;19908;-62
2022/04/13 10:12:08;;;;;;;;;;;23.80;33.80;;;;;;5083622;28;19909;-62
2022/04/13 10:14:33;;;;;;;;;;;23.90;33.90;;;;;;5090895;28;20015;-62
2022/04/13 10:17:05;;;;;;;;;;;23.90;33.90;;;;;;5093285;28;19912;-62
2022/04/13 10:19:31;;;;;;;;;;;24.00;33.90;;;;;;5093370;28;19915;-62
2022/04/13 10:21:56;;;;;;;;;;;24.00;33.80;;;;;;5089807;28;19908;-62
2022/04/13 10:24:26;;;;;;;;;;;24.10;33.80;;;;;;5087012;28;19908;-62
2022/04/13 10:27:04;;;;;;;;;;;24.20;33.70;;;;;;5088537;28;19943;-62
2022/04/13 10:29:33;;;;;;;;;;;24.30;33.60;;;;;;5072687;28;20122;-62
2022/04/13 10:32:08;;;;;;;;;;;24.30;33.60;;;;;;5081792;28;20433;-62
2022/04/13 10:34:38;;;;;;;;;;;24.30;33.60;;;;;;5078366;28;19921;-62
2022/04/13 10:37:07;;;;;;;;;;;24.30;33.60;;;;;;5089444;28;20077;-62
2022/04/13 10:39:32;;;;;;;;;;;24.30;33.60;;;;;;5082322;28;20011;-62
2022/04/13 10:41:58;;;;;;;;;;;24.30;33.50;;;;;;5079097;28;19924;-62
2022/04/13 10:44:36;;;;;;;;;;;24.40;33.60;;;;;;5066141;28;19920;-62
2022/04/13 10:47:04;;;;;;;;;;;24.40;33.50;;;;;;5075863;28;19912;-62
2022/04/13 10:49:33;;;;;;;;;;;24.50;33.50;;;;;;5078517;28;19920;-62
2022/04/13 10:52:01;;;;;;;;;;;24.50;33.60;;;;;;5074957;28;20050;-61
2022/04/13 10:54:27;;;;;;;;;;;24.50;33.60;;;;;;5073206;28;20277;-61
2022/04/13 10:56:56;;;;;;;;;;;24.50;33.80;;;;;;5066326;28;19916;-61
2022/04/13 10:59:24;;;;;;;;;;;24.40;33.90;;;;;;5074557;28;20276;-61
2022/04/13 11:01:57;;;;;;;;;;;24.30;34.10;;;;;;5084171;28;19961;-61
2022/04/13 11:04:22;;;;;;;;;;;24.30;34.20;;;;;;5066762;28;20007;-61
2022/04/13 11:06:48;;;;;;;;;;;24.20;34.40;;;;;;5071102;28;20009;-61
2022/04/13 11:09:15;;;;;;;;;;;24.10;34.50;;;;;;5073539;28;20039;-61
2022/04/13 11:11:40;;;;;;;;;;;24.10;34.70;;;;;;5067009;28;20079;-61
2022/04/13 11:14:35;;;;;;;;;;;24.00;34.80;;;;;;5065532;28;20018;-60
2022/04/13 11:17:07;;;;;;;;;;;24.00;34.90;;;;;;5063227;28;19916;-61
2022/04/13 11:19:32;;;;;;;;;;;23.90;35.00;;;;;;5064842;28;19912;-60
2022/04/13 11:21:57;;;;;;;;;;;23.80;35.10;;;;;;5078120;28;19908;-60
2022/04/13 11:24:39;;;;;;;;;;;23.80;35.30;;;;;;5085144;28;20061;-60
2022/04/13 11:27:05;;;;;;;;;;;23.70;35.40;;;;;;5086229;28;19916;-61
2022/04/13 11:29:34;;;;;;;;;;;23.70;35.50;;;;;;5091960;28;19934;-61
2022/04/13 11:31:59;;;;;;;;;;;23.70;35.60;;;;;;5088608;28;20284;-59
2022/04/13 11:34:28;;;;;;;;;;;23.60;35.70;;;;;;5069584;28;19923;-61
2022/04/13 11:36:57;;;;;;;;;;;23.60;35.80;;;;;;5075584;28;19920;-61
2022/04/13 11:39:41;;;;;;;;;;;23.50;35.80;;;;;;5088031;28;19916;-61
2022/04/13 11:42:13;;;;;;;;;;;23.50;35.90;;;;;;5069772;28;19909;-61
2022/04/13 11:44:48;;;;;;;;;;;23.50;35.90;;;;;;5090287;28;19924;-61
2022/04/13 11:47:14;;;;;;;;;;;23.50;36.10;;;;;;5091852;28;19953;-61
2022/04/13 11:49:53;;;;;;;;;;;23.50;36.20;;;;;;5087706;28;19918;-61
2022/04/13 11:52:37;;;;;;;;;;;23.50;36.40;;;;;;5085679;28;20253;-61
2022/04/13 11:55:04;;;;;;;;;;;23.50;36.40;;;;;;5083608;28;19912;-60
2022/04/13 11:57:49;;;;;;;;;;;23.50;36.30;;;;;;5091793;28;19912;-61
2022/04/13 12:00:34;;;;;;;;;;;23.60;36.20;;;;;;5084834;28;20019;-61
2022/04/13 12:02:59;;;;;;;;;;;23.80;36.10;;;;;;5085860;28;19912;-61
2022/04/13 12:05:25;;;;;;;;;;;23.90;35.90;;;;;;5089860;28;19916;-61
2022/04/13 12:07:51;;;;;;;;;;;24.00;35.80;;;;;;5066913;28;20027;-63
2022/04/13 12:10:16;;;;;;;;;;;24.10;35.70;;;;;;5061974;28;20292;-61
2022/04/13 12:12:55;;;;;;;;;;;24.10;35.70;;;;;;5070737;28;19913;-62
2022/04/13 12:15:21;;;;;;;;;;;24.20;35.70;;;;;;5079101;28;19923;-61
2022/04/13 12:17:46;;;;;;;;;;;24.20;35.70;;;;;;5072325;28;19943;-61
2022/04/13 12:20:27;;;;;;;;;;;24.20;35.70;;;;;;5073658;28;19952;-61
2022/04/13 12:22:53;;;;;;;;;;;24.20;35.80;;;;;;5066013;28;19947;-60
2022/04/13 12:25:19;;;;;;;;;;;24.20;36.00;;;;;;5072095;28;20376;-60
2022/04/13 12:28:03;;;;;;;;;;;24.20;36.00;;;;;;5075105;28;20040;-60
2022/04/13 12:30:28;;;;;;;;;;;24.10;36.10;;;;;;5070250;28;19908;-60
2022/04/13 12:32:54;;;;;;;;;;;24.10;36.20;;;;;;5082143;28;19916;-60
2022/04/13 12:35:19;;;;;;;;;;;24.10;36.40;;;;;;5084413;28;19969;-60
2022/04/13 12:37:49;;;;;;;;;;;24.00;36.60;;;;;;5088170;28;19912;-60
2022/04/13 12:40:18;;;;;;;;;;;24.00;36.80;;;;;;5076978;28;19912;-60
2022/04/13 12:42:44;;;;;;;;;;;24.00;36.80;;;;;;5080889;28;19919;-60
2022/04/13 12:45:12;;;;;;;;;;;23.90;36.70;;;;;;5085911;28;19924;-60
2022/04/13 12:47:43;;;;;;;;;;;23.90;36.80;;;;;;5088281;28;22227;-60
2022/04/13 12:50:09;;;;;;;;;;;23.90;36.80;;;;;;5090709;28;19908;-60
2022/04/13 12:52:35;;;;;;;;;;;23.90;36.90;;;;;;5090950;28;20346;-60
2022/04/13 12:55:01;;;;;;;;;;;24.00;37.00;;;;;;5090483;28;20002;-59
2022/04/13 12:57:26;;;;;;;;;;;24.10;37.00;;;;;;5065824;28;19920;-60
2022/04/13 12:59:52;;;;;;;;;;;24.20;37.00;;;;;;5073685;28;19923;-60
2022/04/13 13:02:18;;;;;;;;;;;24.30;37.00;;;;;;5079347;28;19915;-60
2022/04/13 13:04:45;;;;;;;;;;;24.30;37.10;;;;;;5088618;28;19908;-60
2022/04/13 13:07:11;;;;;;;;;;;24.40;37.40;;;;;;5074052;28;19955;-61
2022/04/13 13:09:37;;;;;;;;;;;24.50;37.50;;;;;;5077772;28;20003;-61
2022/04/13 13:12:04;;;;;;;;;;;24.60;37.50;;;;;;5082341;28;20382;-61
2022/04/13 13:14:36;;;;;;;;;;;24.60;37.50;;;;;;5078293;28;19920;-61
2022/04/13 13:17:15;;;;;;;;;;;24.60;38.10;;;;;;5087595;28;19919;-61
2022/04/13 13:19:40;;;;;;;;;;;24.60;37.60;;;;;;5072637;28;19912;-61
2022/04/13 13:22:12;;;;;;;;;;;24.70;37.50;;;;;;5081523;28;20022;-61
2022/04/13 13:24:44;;;;;;;;;;;24.70;37.40;;;;;;5084662;28;19920;-61
2022/04/13 13:27:09;;;;;;;;;;;24.80;37.40;;;;;;5091149;28;20054;-61
2022/04/13 13:29:41;;;;;;;;;;;24.90;37.50;;;;;;5088152;28;20019;-61
2022/04/13 13:32:13;;;;;;;;;;;24.90;37.60;;;;;;5067116;28;20292;-61
2022/04/13 13:34:39;;;;;;;;;;;24.90;37.60;;;;;;5080780;28;20368;-61
2022/04/13 13:37:04;;;;;;;;;;;25.00;37.60;;;;;;5085100;28;19912;-61
2022/04/13 13:39:30;;;;;;;;;;;25.00;37.60;;;;;;5083381;28;19921;-61
2022/04/13 13:42:05;;;;;;;;;;;25.00;37.60;;;;;;5084032;28;19999;-61
2022/04/13 13:44:31;;;;;;;;;;;25.00;37.60;;;;;;5093643;28;19970;-63
2022/04/13 13:46:57;;;;;;;;;;;24.90;37.50;;;;;;5093754;28;20356;-61
2022/04/13 13:49:22;;;;;;;;;;;24.90;37.50;;;;;;5088573;28;19968;-61
2022/04/13 13:51:48;;;;;;;;;;;24.90;37.70;;;;;;5092547;28;19915;-61
2022/04/13 13:54:14;;;;;;;;;;;24.80;37.80;;;;;;5079670;28;20209;-61
2022/04/13 13:56:39;;;;;;;;;;;24.80;38.00;;;;;;5088351;28;20348;-61
2022/04/13 13:59:05;;;;;;;;;;;24.80;38.10;;;;;;5090685;28;20406;-61
2022/04/13 14:01:31;;;;;;;;;;;24.70;38.10;;;;;;5077611;28;20236;-61
2022/04/13 14:03:56;;;;;;;;;;;24.70;38.30;;;;;;5094150;28;19912;-61
2022/04/13 14:06:22;;;;;;;;;;;24.70;38.40;;;;;;5088882;28;19915;-61
2022/04/13 14:08:50;;;;;;;;;;;24.70;38.40;;;;;;5084136;28;20552;-61
2022/04/13 14:11:16;;;;;;;;;;;24.70;38.40;;;;;;5087015;28;19966;-61
2022/04/13 14:13:42;;;;;;;;;;;24.70;38.50;;;;;;5094109;28;20318;-61